Stayton, Oregon
Current Conditions -  °F | °C
As of 5:56 PM on Friday 24 Oct 2014 (Local Time) from KSLE Reporting Station
Haze Haze  
Wind Chill: 53°   Ceiling: 600
Heat Index: 53°   Visibility: 6mi
Dew Point: 51°   Wind: 6mph
Humidity: 93%   Direction: 330°NNW
Pressure: 29.78"   Gusts: NA
Location:  44.8°N, 122.79°W
Report Text: KSLE 250056Z 33005KT 6SM BR OVC006 12/11 A2978 RMK AO2 RAE08 SLP084 P0000 T01170106
Loading
Personal Weather Stations






























Interactive Weather Map
Tropical Storm Tracking
New forecast layout! Learn more

10-Day Weather Forecast

Advertisements
Track Severe Weather on mobile